Time;durP1;ratioP1;P1;durP2;ratioP2;P2;SDS_P1;SDS_P2;PMS_P1;PMS_P2;Temp;Humidity;BMP_temperature;BMP_pressure;BME280_temperature;BME280_humidity;BME280_pressure;Samples;Min_cycle;Max_cycle;Signal;HPM_P1;HPM_P2
2023/07/27 00:00:00;;;;;;;1.77;1.63;;;;;;;16.24;60.43;100879.06;5071212;27;97711;-79
2023/07/27 00:02:25;;;;;;;1.73;1.60;;;;;;;16.23;60.43;100875.53;5049762;27;98982;-79
2023/07/27 00:04:51;;;;;;;4.23;2.03;;;;;;;16.17;60.39;100863.75;5052658;27;97427;-79
2023/07/27 00:07:17;;;;;;;1.47;1.37;;;;;;;16.15;60.45;100882.97;5070284;27;96956;-79
2023/07/27 00:09:42;;;;;;;3.20;2.37;;;;;;;16.11;60.49;100867.88;5050904;27;99634;-79
2023/07/27 00:12:07;;;;;;;1.83;1.73;;;;;;;16.10;60.43;100858.78;5052195;27;99004;-79
2023/07/27 00:14:33;;;;;;;1.80;1.50;;;;;;;16.08;60.50;100869.66;5068669;27;96988;-79
2023/07/27 00:16:58;;;;;;;3.10;2.00;;;;;;;16.05;60.52;100881.84;5054991;27;96751;-78
2023/07/27 00:19:23;;;;;;;2.00;1.77;;;;;;;16.01;60.52;100848.06;5049894;27;99842;-80
2023/07/27 00:21:49;;;;;;;1.97;1.77;;;;;;;15.99;60.53;100850.63;5068964;27;97141;-79
2023/07/27 00:24:14;;;;;;;1.83;1.67;;;;;;;16.00;60.43;100870.81;5052025;27;97987;-79
2023/07/27 00:26:41;;;;;;;1.77;1.67;;;;;;;15.91;60.59;100843.41;5050517;27;102519;-79
2023/07/27 00:29:07;;;;;;;1.40;1.30;;;;;;;15.93;60.75;100847.16;5052359;27;101476;-79
2023/07/27 00:31:32;;;;;;;1.80;1.70;;;;;;;15.93;60.69;100861.03;5069688;27;97128;-79
2023/07/27 00:33:58;;;;;;;2.63;1.87;;;;;;;15.88;60.84;100844.47;5054941;27;97665;-79
2023/07/27 00:36:23;;;;;;;1.40;1.30;;;;;;;15.86;60.81;100847.75;5069853;27;96984;-79
2023/07/27 00:38:48;;;;;;;4.80;1.90;;;;;;;15.83;60.91;100851.59;5066427;27;97636;-79
2023/07/27 00:41:13;;;;;;;1.93;1.40;;;;;;;15.87;60.86;100865.16;5068666;27;98105;-79
2023/07/27 00:43:39;;;;;;;2.00;1.87;;;;;;;15.79;60.72;100828.97;5069084;27;97411;-79
2023/07/27 00:46:04;;;;;;;1.80;1.70;;;;;;;15.77;60.77;100837.78;5069417;27;97356;-79
2023/07/27 00:48:30;;;;;;;1.73;1.63;;;;;;;15.78;60.74;100833.00;5069438;27;97389;-79
2023/07/27 00:50:56;;;;;;;1.63;1.53;;;;;;;15.73;60.70;100833.81;5051061;27;99330;-79
2023/07/27 00:53:21;;;;;;;2.00;1.73;;;;;;;15.73;60.86;100839.34;5069045;27;97337;-79
2023/07/27 00:55:47;;;;;;;2.50;1.93;;;;;;;15.70;60.74;100834.88;5051038;27;96849;-79
2023/07/27 00:58:13;;;;;;;1.80;1.70;;;;;;;15.67;60.95;100830.34;5068901;27;96800;-79
2023/07/27 01:00:40;;;;;;;1.87;1.77;;;;;;;15.66;61.05;100820.56;5048570;27;99030;-79
2023/07/27 01:03:06;;;;;;;2.37;1.80;;;;;;;15.65;61.04;100810.72;5068482;27;96896;-79
2023/07/27 01:05:32;;;;;;;2.40;1.60;;;;;;;15.61;61.06;100818.59;5049955;27;97275;-79
2023/07/27 01:07:57;;;;;;;1.50;1.40;;;;;;;15.57;61.13;100804.28;5068742;27;97595;-79
2023/07/27 01:10:33;;;;;;;2.97;1.73;;;;;;;15.55;61.18;100823.47;5069760;27;97108;-79
2023/07/27 01:13:11;;;;;;;1.53;1.43;;;;;;;15.57;61.16;100801.50;5069570;27;99693;-79
2023/07/27 01:15:43;;;;;;;1.50;1.40;;;;;;;15.51;60.93;100796.00;5066323;27;96797;-80
2023/07/27 01:18:38;;;;;;;2.50;1.43;;;;;;;15.49;61.15;100800.56;5053222;27;100526;-78
2023/07/27 01:21:16;;;;;;;2.90;1.43;;;;;;;15.45;61.27;100784.25;5065927;27;96715;-79
2023/07/27 01:24:10;;;;;;;1.87;1.77;;;;;;;15.48;61.62;100782.44;5068127;27;97471;-80
2023/07/27 01:27:08;;;;;;;1.70;1.60;;;;;;;15.46;61.42;100776.69;5026415;27;97518;-78
2023/07/27 01:29:54;;;;;;;2.20;2.10;;;;;;;15.39;61.45;100778.00;5069457;27;96940;-79
2023/07/27 01:32:21;;;;;;;1.53;1.43;;;;;;;15.37;61.10;100769.44;5069477;27;97632;-79
2023/07/27 01:34:53;;;;;;;3.00;1.73;;;;;;;15.38;61.60;100765.38;5067801;27;96959;-79
2023/07/27 01:37:20;;;;;;;2.07;1.80;;;;;;;15.41;61.11;100769.13;5067193;27;97344;-79
2023/07/27 01:39:51;;;;;;;2.43;2.10;;;;;;;15.38;61.22;100795.88;5048439;27;99462;-79
2023/07/27 01:42:17;;;;;;;2.50;1.60;;;;;;;15.35;61.36;100765.69;5067865;27;97477;-80
2023/07/27 01:44:43;;;;;;;1.60;1.50;;;;;;;15.34;61.52;100780.81;5050430;27;97948;-79
2023/07/27 01:47:10;;;;;;;2.30;2.10;;;;;;;15.35;61.45;100766.44;5069343;27;97404;-79
2023/07/27 01:49:39;;;;;;;2.10;1.80;;;;;;;15.39;61.63;100769.66;5068738;27;96887;-79
2023/07/27 01:52:05;;;;;;;1.83;1.70;;;;;;;15.40;61.46;100762.09;5067081;27;100314;-80
2023/07/27 01:54:32;;;;;;;1.73;1.47;;;;;;;15.38;61.63;100756.31;5049632;27;97574;-79
2023/07/27 01:56:58;;;;;;;3.70;1.57;;;;;;;15.41;61.53;100763.59;5069665;27;96892;-80
2023/07/27 01:59:24;;;;;;;5.43;2.10;;;;;;;15.40;61.63;100740.66;5068107;27;98105;-79
2023/07/27 02:01:50;;;;;;;1.70;1.60;;;;;;;15.38;61.63;100764.63;5049855;27;100470;-80
2023/07/27 02:04:15;;;;;;;1.70;1.60;;;;;;;15.44;61.61;100741.13;5050623;27;96975;-79
2023/07/27 02:06:41;;;;;;;4.60;2.27;;;;;;;15.43;61.74;100725.78;5067563;27;97072;-79
2023/07/27 02:09:06;;;;;;;1.70;1.60;;;;;;;15.44;61.76;100730.03;5053084;27;99165;-79
2023/07/27 02:11:33;;;;;;;2.30;2.20;;;;;;;15.44;61.81;100729.31;5068728;27;104158;-79
2023/07/27 02:14:24;;;;;;;2.80;1.47;;;;;;;15.45;62.39;100722.47;5065495;27;96601;-79
2023/07/27 02:16:56;;;;;;;1.80;1.70;;;;;;;15.46;61.96;100719.22;5026481;27;97366;-79
2023/07/27 02:19:28;;;;;;;3.43;1.93;;;;;;;15.46;61.93;100729.53;5066517;27;97951;-79
2023/07/27 02:21:55;;;;;;;2.20;1.73;;;;;;;15.47;61.84;100734.56;5065309;27;100418;-79
2023/07/27 02:24:21;;;;;;;1.87;1.70;;;;;;;15.49;61.86;100731.25;5067445;27;97162;-78
2023/07/27 02:26:47;;;;;;;1.60;1.50;;;;;;;15.48;61.81;100727.00;5067023;27;96876;-79
2023/07/27 02:29:12;;;;;;;1.83;1.73;;;;;;;15.49;61.98;100728.47;5067582;27;99123;-79
2023/07/27 02:31:38;;;;;;;2.30;1.90;;;;;;;15.48;62.06;100724.22;5047392;27;103574;-79
2023/07/27 02:34:03;;;;;;;2.37;1.90;;;;;;;15.52;61.97;100739.28;5052514;27;99129;-79
2023/07/27 02:36:28;;;;;;;1.90;1.80;;;;;;;15.56;62.07;100725.09;5053366;27;97258;-78
2023/07/27 02:38:54;;;;;;;2.40;2.20;;;;;;;15.57;62.03;100721.06;5065362;27;99405;-79
2023/07/27 02:41:19;;;;;;;2.37;2.00;;;;;;;15.58;62.17;100733.66;5068017;27;97409;-79
2023/07/27 02:43:44;;;;;;;2.10;2.00;;;;;;;15.58;62.10;100717.00;5047949;27;97428;-79
2023/07/27 02:46:10;;;;;;;2.30;2.10;;;;;;;15.59;61.96;100719.28;5065075;27;97116;-79
2023/07/27 02:48:35;;;;;;;2.83;1.87;;;;;;;15.59;62.06;100724.06;5064424;27;96739;-79
2023/07/27 02:51:01;;;;;;;1.70;1.60;;;;;;;15.58;62.14;100722.56;5048670;27;98842;-82
2023/07/27 02:53:26;;;;;;;3.17;1.80;;;;;;;15.61;62.21;100719.50;5067710;27;96960;-77
2023/07/27 02:55:59;;;;;;;2.07;1.87;;;;;;;15.64;62.36;100720.44;5065431;27;96989;-79
2023/07/27 02:58:25;;;;;;;4.23;2.40;;;;;;;15.61;62.11;100713.97;5045043;27;101018;-79
2023/07/27 03:00:53;;;;;;;3.50;2.30;;;;;;;15.60;62.16;100709.66;5048181;27;99051;-79
2023/07/27 03:03:18;;;;;;;2.13;1.90;;;;;;;15.60;62.25;100717.22;5067087;27;97444;-79
2023/07/27 03:05:43;;;;;;;2.10;2.00;;;;;;;15.60;62.20;100718.00;5047839;27;104170;-82
2023/07/27 03:08:09;;;;;;;2.80;2.10;;;;;;;15.60;62.08;100708.91;5051911;27;99383;-78
2023/07/27 03:10:35;;;;;;;3.80;2.53;;;;;;;15.58;62.09;100717.75;5063545;27;100051;-79
2023/07/27 03:13:00;;;;;;;2.80;2.37;;;;;;;15.58;62.14;100733.66;5064206;27;97517;-79
2023/07/27 03:15:25;;;;;;;1.93;1.80;;;;;;;15.57;62.20;100699.63;5064732;27;96995;-79
2023/07/27 03:17:51;;;;;;;2.93;2.20;;;;;;;15.56;61.90;100702.91;5065270;27;100517;-79
2023/07/27 03:20:16;;;;;;;2.43;2.23;;;;;;;15.56;62.10;100697.38;5063157;27;113035;-79
2023/07/27 03:22:41;;;;;;;2.60;2.40;;;;;;;15.54;62.23;100706.22;5045907;27;96869;-79
2023/07/27 03:25:07;;;;;;;2.43;2.30;;;;;;;15.52;62.14;100685.84;5046196;27;100301;-79
2023/07/27 03:27:32;;;;;;;3.57;3.00;;;;;;;15.53;61.96;100696.41;5044926;27;101390;-77
2023/07/27 03:29:58;;;;;;;4.63;2.40;;;;;;;15.48;62.05;100685.41;5046541;27;102583;-79
2023/07/27 03:32:23;;;;;;;3.63;2.63;;;;;;;15.47;62.33;100689.44;5049039;27;97078;-77
2023/07/27 03:34:48;;;;;;;2.43;2.23;;;;;;;15.46;62.33;100693.50;5064332;27;96852;-78
2023/07/27 03:37:13;;;;;;;2.17;1.93;;;;;;;15.47;62.32;100694.97;5043939;27;99717;-79
2023/07/27 03:39:39;;;;;;;2.80;2.50;;;;;;;15.46;62.42;100710.88;5063928;27;97063;-78
2023/07/27 03:42:05;;;;;;;2.43;2.23;;;;;;;15.44;62.29;100682.91;5047034;27;97007;-80
2023/07/27 03:44:30;;;;;;;2.83;2.60;;;;;;;15.39;62.41;100671.88;5065065;27;97014;-79
2023/07/27 03:46:55;;;;;;;4.53;2.57;;;;;;;15.40;62.44;100687.97;5055596;27;97878;-78
2023/07/27 03:49:21;;;;;;;2.53;2.33;;;;;;;15.40;62.41;100678.91;5050754;27;99034;-78
2023/07/27 03:51:46;;;;;;;2.80;2.60;;;;;;;15.37;62.53;100677.22;5034927;27;97640;-79
2023/07/27 03:54:12;;;;;;;8.20;2.60;;;;;;;15.42;62.38;100670.84;5028317;27;99048;-78
2023/07/27 03:56:40;;;;;;;2.30;2.20;;;;;;;15.39;62.46;100664.31;5047628;27;99237;-79
2023/07/27 03:59:05;;;;;;;4.70;2.70;;;;;;;15.44;62.41;100660.00;5035380;27;100358;-81
2023/07/27 04:01:30;;;;;;;2.70;2.47;;;;;;;15.45;62.45;100662.25;5053526;27;97846;-80
2023/07/27 04:03:56;;;;;;;3.23;2.70;;;;;;;15.41;62.44;100641.59;5033684;27;97296;-80
2023/07/27 04:06:21;;;;;;;2.50;2.30;;;;;;;15.42;62.57;100654.94;5058655;27;108225;-80
2023/07/27 04:08:47;;;;;;;2.47;2.27;;;;;;;15.44;62.50;100649.63;5046580;27;100176;-79
2023/07/27 04:11:13;;;;;;;3.20;2.57;;;;;;;15.47;62.58;100642.31;5064815;27;97334;-80
2023/07/27 04:13:38;;;;;;;4.43;2.30;;;;;;;15.47;62.64;100643.06;5064609;27;96722;-79
2023/07/27 04:16:05;;;;;;;2.90;2.47;;;;;;;15.50;62.61;100644.78;5044952;27;100476;-80
2023/07/27 04:18:30;;;;;;;2.87;2.67;;;;;;;15.51;62.67;100635.19;5041124;27;99340;-80
2023/07/27 04:20:55;;;;;;;2.70;2.50;;;;;;;15.55;62.63;100641.16;5046562;27;97510;-80
2023/07/27 04:23:21;;;;;;;3.00;2.80;;;;;;;15.60;62.55;100653.44;5065868;27;96942;-80
2023/07/27 04:25:46;;;;;;;2.40;2.20;;;;;;;15.59;62.69;100632.56;5064831;27;97342;-79
2023/07/27 04:28:11;;;;;;;2.27;2.07;;;;;;;15.66;62.60;100637.50;5064898;27;97858;-80
2023/07/27 04:30:37;;;;;;;2.53;2.33;;;;;;;15.68;62.77;100637.72;5048349;27;97176;-80
2023/07/27 04:33:02;;;;;;;2.20;2.10;;;;;;;15.68;62.87;100635.66;5069033;27;97021;-80
2023/07/27 04:35:27;;;;;;;2.87;2.37;;;;;;;15.71;62.65;100633.88;5068248;27;99780;-80
2023/07/27 04:37:53;;;;;;;5.30;2.00;;;;;;;15.74;62.85;100630.81;5068107;27;98026;-80
2023/07/27 04:40:19;;;;;;;2.13;1.93;;;;;;;15.76;62.91;100627.50;5069412;27;97586;-80
2023/07/27 04:42:44;;;;;;;2.70;2.50;;;;;;;15.75;62.84;100614.88;5050949;27;96901;-79
2023/07/27 04:45:10;;;;;;;2.00;1.90;;;;;;;15.81;62.95;100617.59;5049628;27;101086;-79
2023/07/27 04:47:35;;;;;;;2.10;1.90;;;;;;;15.87;62.73;100616.22;5050111;27;99538;-80
2023/07/27 04:50:01;;;;;;;2.30;2.10;;;;;;;15.88;62.67;100614.91;5049577;27;97272;-80
2023/07/27 04:52:27;;;;;;;3.03;2.40;;;;;;;15.85;62.75;100613.22;5070248;27;97195;-79
2023/07/27 04:54:53;;;;;;;2.00;1.90;;;;;;;15.89;62.86;100604.59;5043802;27;99305;-80
2023/07/27 04:57:18;;;;;;;2.23;1.70;;;;;;;15.91;62.88;100627.75;5049081;27;100939;-80
2023/07/27 04:59:44;;;;;;;2.30;2.20;;;;;;;15.94;62.93;100620.38;5069736;27;97277;-79
2023/07/27 05:02:09;;;;;;;2.10;2.00;;;;;;;15.94;62.94;100610.06;5051334;27;97308;-79
2023/07/27 05:04:34;;;;;;;1.93;1.83;;;;;;;15.96;63.01;100610.25;5069071;27;97933;-80
2023/07/27 05:06:59;;;;;;;2.30;2.10;;;;;;;15.97;62.92;100603.41;5068698;27;97125;-79
2023/07/27 05:09:25;;;;;;;2.93;2.63;;;;;;;16.00;63.04;100616.25;5053066;27;97265;-79
2023/07/27 05:11:50;;;;;;;3.37;2.33;;;;;;;16.02;63.05;100605.34;5049248;27;98653;-80
2023/07/27 05:14:15;;;;;;;1.97;1.87;;;;;;;16.05;63.07;100615.41;5053602;27;103357;-80
2023/07/27 05:16:41;;;;;;;2.10;1.97;;;;;;;16.12;63.15;100602.94;5067619;27;97532;-80
2023/07/27 05:19:06;;;;;;;1.87;1.77;;;;;;;16.15;63.10;100610.94;5044733;27;97122;-80
2023/07/27 05:21:31;;;;;;;3.20;2.90;;;;;;;16.20;63.09;100610.09;5068484;27;97128;-80
2023/07/27 05:23:57;;;;;;;3.07;2.60;;;;;;;16.22;63.07;100615.84;5049322;27;99663;-80
2023/07/27 05:26:22;;;;;;;3.93;2.17;;;;;;;16.29;63.02;100620.03;5049260;27;98964;-80
2023/07/27 05:28:47;;;;;;;3.20;2.30;;;;;;;16.33;63.10;100626.75;5049597;27;97080;-80
2023/07/27 05:31:12;;;;;;;5.13;3.23;;;;;;;16.35;63.01;100621.44;5049918;27;98470;-80
2023/07/27 05:33:38;;;;;;;2.80;2.10;;;;;;;16.35;62.95;100618.66;5049436;27;103199;-80
2023/07/27 05:36:03;;;;;;;2.87;2.50;;;;;;;16.36;63.17;100634.00;5067023;27;98189;-80
2023/07/27 05:38:29;;;;;;;2.40;2.20;;;;;;;16.36;62.91;100631.22;5048686;27;97148;-80
2023/07/27 05:40:59;;;;;;;2.63;2.43;;;;;;;16.40;63.17;100622.59;5047270;27;97044;-80
2023/07/27 05:43:25;;;;;;;4.20;2.70;;;;;;;16.41;63.02;100640.75;5046723;27;99375;-80
2023/07/27 05:45:50;;;;;;;3.17;2.53;;;;;;;16.39;63.03;100629.41;5066607;27;98584;-80
2023/07/27 05:48:15;;;;;;;2.80;2.60;;;;;;;16.35;63.06;100618.66;5046939;27;105101;-81
2023/07/27 05:50:41;;;;;;;2.90;2.60;;;;;;;16.40;63.17;100634.44;5048089;27;99927;-81
2023/07/27 05:53:06;;;;;;;2.43;2.20;;;;;;;16.42;63.21;100620.75;5048125;27;99392;-80
2023/07/27 05:55:32;;;;;;;2.23;2.13;;;;;;;16.42;63.42;100615.22;5051490;27;99685;-80
2023/07/27 05:57:57;;;;;;;2.80;2.60;;;;;;;16.42;63.40;100606.16;5047775;27;97399;-80
2023/07/27 06:00:22;;;;;;;3.50;2.80;;;;;;;16.45;63.42;100630.81;5066962;27;97449;-80
2023/07/27 06:02:48;;;;;;;2.50;2.30;;;;;;;16.48;63.50;100602.00;5048836;27;99979;-80
2023/07/27 06:05:13;;;;;;;3.53;2.43;;;;;;;16.51;63.35;100613.34;5047661;27;99264;-80
2023/07/27 06:07:39;;;;;;;2.57;2.37;;;;;;;16.53;63.41;100619.09;5064686;27;97317;-80
2023/07/27 06:10:04;;;;;;;2.47;2.27;;;;;;;16.54;63.44;100603.91;5047266;27;97098;-80
2023/07/27 06:12:30;;;;;;;2.77;2.47;;;;;;;16.59;63.29;100605.84;5050213;27;99755;-80
2023/07/27 06:14:55;;;;;;;3.27;2.97;;;;;;;16.60;63.26;100610.84;5048078;27;99888;-80
2023/07/27 06:17:21;;;;;;;3.80;2.70;;;;;;;16.65;63.46;100609.25;5067307;27;97105;-80
2023/07/27 06:19:46;;;;;;;3.10;2.57;;;;;;;16.68;63.43;100608.19;5066450;27;96839;-80
2023/07/27 06:22:11;;;;;;;2.63;2.10;;;;;;;16.70;63.48;100595.28;5046661;27;101129;-80
2023/07/27 06:24:37;;;;;;;5.03;2.90;;;;;;;16.76;63.63;100595.16;5066667;27;104750;-80
2023/07/27 06:27:02;;;;;;;3.70;2.50;;;;;;;16.80;63.63;100601.13;5065355;27;97227;-80
2023/07/27 06:29:28;;;;;;;3.60;2.13;;;;;;;16.86;63.70;100594.16;5065374;27;97196;-80
2023/07/27 06:31:53;;;;;;;2.70;2.50;;;;;;;16.90;63.70;100599.41;5049584;27;100330;-80
2023/07/27 06:34:19;;;;;;;2.90;2.70;;;;;;;16.98;63.70;100594.69;5052144;27;98927;-80
2023/07/27 06:36:44;;;;;;;2.67;2.50;;;;;;;17.06;63.91;100584.38;5048191;27;97433;-78
2023/07/27 06:39:09;;;;;;;2.73;2.23;;;;;;;17.15;63.83;100581.16;5065807;27;97571;-80
2023/07/27 06:41:35;;;;;;;4.60;2.97;;;;;;;17.21;63.68;100581.81;5066742;27;98071;-79
2023/07/27 06:44:00;;;;;;;3.87;3.47;;;;;;;17.25;63.61;100587.78;5049872;27;99311;-80
2023/07/27 06:46:26;;;;;;;3.03;2.57;;;;;;;17.31;63.89;100582.81;5049314;27;97150;-80
2023/07/27 06:48:52;;;;;;;3.33;3.03;;;;;;;17.38;63.76;100584.19;5047668;27;96917;-80
2023/07/27 06:51:18;;;;;;;3.30;2.90;;;;;;;17.44;63.71;100593.88;5066154;27;97097;-80
2023/07/27 06:53:43;;;;;;;3.27;2.97;;;;;;;17.51;63.74;100601.59;5046971;27;100106;-80
2023/07/27 06:56:08;;;;;;;3.13;2.93;;;;;;;17.57;63.68;100579.19;5052067;27;96840;-80
2023/07/27 06:58:34;;;;;;;3.60;3.27;;;;;;;17.60;63.70;100583.69;5064344;27;97426;-80
2023/07/27 07:00:59;;;;;;;3.97;3.10;;;;;;;17.62;63.80;100581.84;5063777;27;97427;-80
2023/07/27 07:03:25;;;;;;;3.27;3.03;;;;;;;17.67;63.81;100580.97;5062295;27;99560;-81
2023/07/27 07:05:53;;;;;;;2.80;2.60;;;;;;;17.69;63.87;100605.47;5045259;27;96852;-81
2023/07/27 07:08:19;;;;;;;3.03;2.73;;;;;;;17.71;64.10;100622.38;5044953;27;97360;-81
2023/07/27 07:10:44;;;;;;;3.50;2.83;;;;;;;17.84;63.91;100572.94;5048066;27;99777;-81
2023/07/27 07:13:10;;;;;;;8.67;3.27;;;;;;;17.88;63.79;100576.16;5063828;27;97052;-80
2023/07/27 07:15:35;;;;;;;2.87;2.67;;;;;;;17.91;63.84;100561.13;5063653;27;99634;-80
2023/07/27 07:18:00;;;;;;;2.90;2.70;;;;;;;17.96;63.94;100565.81;5045194;27;99094;-80
2023/07/27 07:20:26;;;;;;;3.03;2.73;;;;;;;18.03;64.05;100566.41;5063342;27;100339;-81
2023/07/27 07:22:51;;;;;;;2.70;2.50;;;;;;;18.10;64.04;100563.69;5044450;27;109667;-82
2023/07/27 07:25:17;;;;;;;3.53;2.90;;;;;;;18.16;64.00;100569.09;5047227;27;98323;-80
2023/07/27 07:27:42;;;;;;;2.90;2.70;;;;;;;18.23;63.99;100573.97;5044403;27;97325;-80
2023/07/27 07:30:08;;;;;;;4.03;2.97;;;;;;;18.31;64.01;100569.19;5046152;27;99442;-81
2023/07/27 07:32:34;;;;;;;3.13;2.93;;;;;;;18.38;63.95;100548.97;5061132;27;99885;-80
2023/07/27 07:35:00;;;;;;;3.50;3.20;;;;;;;18.46;63.93;100567.25;5057944;27;97184;-80
2023/07/27 07:37:25;;;;;;;2.97;2.77;;;;;;;18.46;63.91;100560.94;5060703;27;97223;-81
2023/07/27 07:39:51;;;;;;;3.60;3.30;;;;;;;18.47;63.93;100545.72;5039938;27;99767;-80
2023/07/27 07:42:16;;;;;;;3.20;3.00;;;;;;;18.55;63.91;100546.50;5042746;27;100453;-80
2023/07/27 07:44:42;;;;;;;3.20;2.90;;;;;;;18.60;63.88;100559.53;5060360;27;96775;-81
2023/07/27 07:47:07;;;;;;;2.90;2.53;;;;;;;18.61;64.08;100533.13;5042500;27;97446;-82
2023/07/27 07:49:33;;;;;;;2.63;2.43;;;;;;;18.65;63.98;100558.63;5042570;27;99411;-81
2023/07/27 07:51:59;;;;;;;3.33;3.03;;;;;;;18.67;64.10;100542.09;5042356;27;99277;-80
2023/07/27 07:54:28;;;;;;;3.53;3.00;;;;;;;18.73;64.28;100539.13;5061467;27;97247;-81
2023/07/27 07:56:54;;;;;;;4.10;3.80;;;;;;;18.77;63.96;100539.53;5060306;27;97662;-82
2023/07/27 07:59:19;;;;;;;4.10;3.17;;;;;;;18.81;64.15;100537.88;5061472;27;97830;-82
2023/07/27 08:01:45;;;;;;;2.60;2.40;;;;;;;18.85;64.34;100557.75;5042676;27;99685;-80
2023/07/27 08:04:10;;;;;;;3.00;2.70;;;;;;;18.91;64.23;100522.13;5045329;27;97500;-81
2023/07/27 08:06:35;;;;;;;3.43;3.10;;;;;;;18.95;64.22;100516.91;5063578;27;97180;-81
2023/07/27 08:09:01;;;;;;;3.17;2.63;;;;;;;19.01;64.19;100520.28;5062529;27;97921;-82
2023/07/27 08:11:26;;;;;;;4.97;3.37;;;;;;;19.07;64.12;100522.88;5064779;27;97799;-81
2023/07/27 08:13:52;;;;;;;2.80;2.60;;;;;;;19.14;64.14;100511.00;5045928;27;100185;-81
2023/07/27 08:16:18;;;;;;;3.03;2.77;;;;;;;19.15;64.13;100493.72;5046002;27;97323;-81
2023/07/27 08:18:44;;;;;;;5.33;3.10;;;;;;;19.23;64.23;100508.41;5065546;27;97586;-81
2023/07/27 08:21:09;;;;;;;3.17;2.87;;;;;;;19.28;64.11;100521.44;5045090;27;99216;-81
2023/07/27 08:23:35;;;;;;;4.50;3.60;;;;;;;19.32;63.93;100498.75;5047836;27;97600;-80
2023/07/27 08:26:01;;;;;;;3.10;2.80;;;;;;;19.36;63.88;100499.91;5043726;27;97161;-81
2023/07/27 08:28:27;;;;;;;3.17;2.87;;;;;;;19.39;64.03;100507.16;5042226;27;99708;-81
2023/07/27 08:30:53;;;;;;;3.47;3.00;;;;;;;19.46;64.06;100499.34;5044250;27;99317;-81
2023/07/27 08:33:19;;;;;;;4.30;2.93;;;;;;;19.48;63.95;100493.97;5063941;27;97191;-81
2023/07/27 08:35:46;;;;;;;2.83;2.53;;;;;;;19.53;63.94;100477.00;5063743;27;97043;-81
2023/07/27 08:38:11;;;;;;;4.30;3.00;;;;;;;19.56;63.99;100489.88;5045917;27;100265;-81
2023/07/27 08:40:37;;;;;;;3.00;2.80;;;;;;;19.58;64.14;100480.91;5048069;27;98931;-81
2023/07/27 08:43:07;;;;;;;3.17;2.73;;;;;;;19.60;64.12;100473.47;5047157;27;96725;-81
2023/07/27 08:45:34;;;;;;;7.13;2.90;;;;;;;19.68;63.92;100465.84;5046494;27;97506;-81
2023/07/27 08:48:00;;;;;;;3.00;2.80;;;;;;;19.69;63.94;100461.75;5063307;27;97548;-81
2023/07/27 08:50:25;;;;;;;2.53;2.33;;;;;;;19.76;63.95;100457.47;5045284;27;98874;-81
2023/07/27 08:52:51;;;;;;;3.57;2.60;;;;;;;19.83;64.05;100451.13;5045881;27;100047;-82
2023/07/27 08:55:16;;;;;;;3.17;2.90;;;;;;;19.86;63.74;100461.16;5063966;27;97336;-81
2023/07/27 08:57:42;;;;;;;2.37;2.17;;;;;;;19.88;63.73;100453.72;5045918;27;100771;-80
2023/07/27 09:00:11;;;;;;;3.50;3.13;;;;;;;19.88;63.88;100462.09;5064548;27;100915;-81
2023/07/27 09:02:38;;;;;;;2.40;2.20;;;;;;;19.87;63.86;100440.31;5064932;27;97205;-81
2023/07/27 09:05:05;;;;;;;2.67;2.47;;;;;;;19.91;63.86;100443.47;5065260;27;96853;-80
2023/07/27 09:07:30;;;;;;;4.07;3.07;;;;;;;19.91;64.05;100451.84;5064231;27;98104;-81
2023/07/27 09:09:56;;;;;;;2.73;2.30;;;;;;;19.93;64.28;100441.59;5065656;27;97081;-81
2023/07/27 09:12:22;;;;;;;4.30;2.40;;;;;;;19.99;64.06;100441.38;5045347;27;97646;-81
2023/07/27 09:14:48;;;;;;;2.80;2.60;;;;;;;20.02;64.08;100449.41;5047075;27;97570;-81
2023/07/27 09:17:14;;;;;;;4.90;2.93;;;;;;;20.12;64.02;100433.53;5044990;27;99541;-81
2023/07/27 09:19:43;;;;;;;2.47;2.27;;;;;;;20.18;64.31;100424.97;5047077;27;99460;-82
2023/07/27 09:22:10;;;;;;;2.20;2.10;;;;;;;20.26;64.17;100424.94;5064345;27;97986;-80
2023/07/27 09:24:36;;;;;;;2.40;2.20;;;;;;;20.30;63.96;100430.88;5044247;27;97347;-81
2023/07/27 09:27:08;;;;;;;2.13;1.97;;;;;;;20.29;63.80;100426.63;5046305;27;99470;-79
2023/07/27 09:29:33;;;;;;;2.37;2.07;;;;;;;20.33;63.80;100429.75;5043845;27;100302;-82
2023/07/27 09:31:59;;;;;;;2.23;2.13;;;;;;;20.34;63.64;100434.78;5048947;27;97180;-81
2023/07/27 09:34:28;;;;;;;2.67;2.47;;;;;;;20.39;63.64;100431.03;5066315;27;97405;-81
2023/07/27 09:36:55;;;;;;;2.30;2.10;;;;;;;20.42;63.50;100429.88;5047172;27;99940;-81
2023/07/27 09:39:21;;;;;;;2.30;2.20;;;;;;;20.38;63.34;100448.38;5054152;27;100122;-81
2023/07/27 09:41:46;;;;;;;2.33;2.03;;;;;;;20.47;63.29;100423.34;5052171;27;98188;-82
2023/07/27 09:44:16;;;;;;;4.37;2.50;;;;;;;20.48;63.29;100404.53;5065996;27;97409;-81
2023/07/27 09:46:44;;;;;;;3.23;2.00;;;;;;;20.47;63.39;100400.97;5064352;27;100066;-81
2023/07/27 09:49:11;;;;;;;3.07;2.50;;;;;;;20.52;63.25;100402.81;5044205;27;100001;-80
2023/07/27 09:51:37;;;;;;;2.50;2.30;;;;;;;20.51;63.17;100406.19;5065678;27;97605;-80
2023/07/27 09:54:04;;;;;;;2.53;2.33;;;;;;;20.57;62.97;100385.09;5049876;27;97067;-82
2023/07/27 09:56:30;;;;;;;2.30;2.10;;;;;;;20.64;62.69;100387.09;5065304;27;97522;-82
2023/07/27 09:58:58;;;;;;;2.33;2.17;;;;;;;20.70;62.69;100393.22;5046059;27;99369;-82
2023/07/27 10:01:23;;;;;;;2.10;1.93;;;;;;;20.73;62.67;100399.69;5061940;27;97213;-81
2023/07/27 10:03:49;;;;;;;1.97;1.87;;;;;;;20.77;62.68;100392.41;5053773;27;97806;-81
2023/07/27 10:06:17;;;;;;;2.63;2.43;;;;;;;20.77;62.41;100389.59;5064478;27;97076;-80
2023/07/27 10:08:44;;;;;;;2.60;2.00;;;;;;;20.75;62.47;100386.63;5063186;27;99097;-82
2023/07/27 10:11:10;;;;;;;2.47;2.27;;;;;;;20.75;62.49;100402.69;5064978;27;97265;-79
2023/07/27 10:13:41;;;;;;;2.53;2.33;;;;;;;20.70;62.59;100407.19;5065716;27;98074;-81
2023/07/27 10:16:09;;;;;;;6.30;2.50;;;;;;;20.59;62.56;100395.72;5062118;27;97111;-81
2023/07/27 10:18:40;;;;;;;2.50;2.30;;;;;;;20.47;62.82;100384.22;5045621;27;99757;-80
2023/07/27 10:21:21;;;;;;;2.30;2.10;;;;;;;20.39;63.20;100377.94;5040031;27;97195;-81
2023/07/27 10:23:59;;;;;;;2.57;2.13;;;;;;;20.35;63.14;100380.38;5063888;27;100135;-81
2023/07/27 10:26:50;;;;;;;3.53;2.33;;;;;;;20.31;63.70;100370.91;5063336;27;96872;-81
2023/07/27 10:29:21;;;;;;;2.27;2.07;;;;;;;20.31;63.41;100363.28;5041056;27;99180;-80
2023/07/27 10:32:06;;;;;;;2.40;2.20;;;;;;;20.29;63.53;100363.06;5043292;27;96806;-81
2023/07/27 10:34:34;;;;;;;2.10;2.00;;;;;;;20.27;63.37;100365.69;5045349;27;96976;-82
2023/07/27 10:37:05;;;;;;;2.37;1.93;;;;;;;20.31;63.46;100357.69;5049138;27;99632;-81
2023/07/27 10:39:35;;;;;;;2.13;2.00;;;;;;;20.36;63.59;100367.88;5063066;27;97209;-81
2023/07/27 10:42:12;;;;;;;2.10;2.00;;;;;;;20.38;63.78;100356.88;5040759;27;97054;-82
2023/07/27 10:44:42;;;;;;;2.10;1.90;;;;;;;20.37;63.61;100352.63;5062610;27;97084;-81
2023/07/27 10:47:10;;;;;;;2.30;1.73;;;;;;;20.33;63.56;100352.28;5044392;27;99712;-81
2023/07/27 10:49:44;;;;;;;2.20;2.10;;;;;;;20.32;64.05;100350.78;5045239;27;99614;-81
2023/07/27 10:52:14;;;;;;;2.30;2.10;;;;;;;20.33;63.97;100334.75;5063709;27;97219;-81
2023/07/27 10:54:40;;;;;;;3.83;1.77;;;;;;;20.30;63.84;100333.09;5044577;27;97364;-81
2023/07/27 10:57:08;;;;;;;5.60;1.83;;;;;;;20.24;64.05;100327.72;5062770;27;96715;-81
2023/07/27 10:59:37;;;;;;;2.30;1.90;;;;;;;20.12;63.98;100327.38;5062012;27;97776;-80
2023/07/27 11:02:05;;;;;;;2.40;2.20;;;;;;;20.16;64.09;100341.69;5045012;27;97450;-81
2023/07/27 11:04:33;;;;;;;4.13;2.20;;;;;;;20.12;64.13;100316.22;5062664;27;99786;-81
2023/07/27 11:07:00;;;;;;;2.17;2.07;;;;;;;20.04;64.31;100314.78;5063439;27;97414;-81
2023/07/27 11:09:26;;;;;;;2.20;2.00;;;;;;;20.06;64.25;100309.34;5061053;27;96908;-81
2023/07/27 11:12:00;;;;;;;2.67;2.07;;;;;;;20.05;64.48;100321.84;5047089;27;96877;-81
2023/07/27 11:14:26;;;;;;;2.07;1.97;;;;;;;20.01;64.33;100307.50;5061883;27;96906;-81
2023/07/27 11:16:52;;;;;;;6.57;1.53;;;;;;;19.97;64.39;100298.78;5048162;27;100654;-81
2023/07/27 11:19:17;;;;;;;1.73;1.63;;;;;;;19.95;64.62;100307.75;5062412;27;96899;-82
2023/07/27 11:21:43;;;;;;;1.93;1.83;;;;;;;19.96;64.44;100309.22;5062211;27;97238;-82